Abu Dhabi, UAE

5:06 PM GST on July 23, 2016 (GMT +0400)
Abu Dhabi International | | Change Station

Elev 89 ft 24.43 °N, 54.65 °E | Updated 6 minutes ago

Clear
Clear
106 °F
Feels Like 113 °F
N
14
Wind Variable Wind from NNW

Today
High -- | Low -- °F
--% Chance of Precip.
Yesterday
High -- | Low -- °F
Precip. -- in
Pressure 29.33 in
Visibility 5.6 miles
Clouds
Heat Index 113 °F
Dew Point 68 °F
Humidity 30%
Rainfall 0.00 in
Snow Depth Not available.
5:45 AM 7:09 PM
Waning Gibbous, 85% visible
METAR OMAA 231300Z 33012KT 9000 NSC 41/20 Q0993 NOSIG
Pressure 29.33 in
Visibility 5.6 miles
Clouds
Heat Index 113 °F
Dew Point 68 °F
Humidity 30%
Rainfall 0.00 in
Snow Depth Not available.
5:45 AM 7:09 PM
Waning Gibbous, 85% visible
METAR OMAA 231300Z 33012KT 9000 NSC 41/20 Q0993 NOSIG

10-Day Weather Forecast

No radar image for this location.
×

Almanac

Astronomy

Jul. 23, 2016 Rise Set
Actual Time
Civil Twilight
Nautical Twilight
Astronomical Twilight
Moon
Length of Visible Light
Length of Day
Tomorrow will be .
, % of the Moon is Illuminated

Today's Extremes

Country Highs Country Lows

Community

WunderPhotos

Upload Photos

1,926,816 photos uploaded!

WunderBlog® & News

Nearby

Air Quality

  Air Quality AQ Index Pollutant
Not available.

Snow Depth

Station Depth Elevation

Earthquake Activity

City Distance Mag. Time & Date
Minimum magnitude displayed is 2.5.

Coastal Water Temperatures

Place Temperature

Stations

Nearby Weather Stations

Station Location Temp. Windchill Dew Point Humidity Wind Precip. Elev Updated Type